sensor_id;sensor_type;location;lat;lon;timestamp;temperature;humidity
15013;DHT22;7603;49.432;11.418;2023-09-07T00:00:20;13.10;99.90
15013;DHT22;7603;49.432;11.418;2023-09-07T00:02:46;13.10;99.90
15013;DHT22;7603;49.432;11.418;2023-09-07T00:05:12;13.10;99.90
15013;DHT22;7603;49.432;11.418;2023-09-07T00:07:38;13.10;99.90
15013;DHT22;7603;49.432;11.418;2023-09-07T00:10:04;13.00;99.90
15013;DHT22;7603;49.432;11.418;2023-09-07T00:12:30;13.00;99.90
15013;DHT22;7603;49.432;11.418;2023-09-07T00:14:57;13.00;99.90
15013;DHT22;7603;49.432;11.418;2023-09-07T00:17:23;13.00;99.90
15013;DHT22;7603;49.432;11.418;2023-09-07T00:19:49;13.00;99.90
15013;DHT22;7603;49.432;11.418;2023-09-07T00:22:17;13.00;99.90
15013;DHT22;7603;49.432;11.418;2023-09-07T00:24:43;12.90;99.90
15013;DHT22;7603;49.432;11.418;2023-09-07T00:27:08;12.90;99.90
15013;DHT22;7603;49.432;11.418;2023-09-07T00:29:37;12.90;99.90
15013;DHT22;7603;49.432;11.418;2023-09-07T00:32:03;12.90;99.90
15013;DHT22;7603;49.432;11.418;2023-09-07T00:34:29;12.80;99.90
15013;DHT22;7603;49.432;11.418;2023-09-07T00:36:55;12.80;99.90
15013;DHT22;7603;49.432;11.418;2023-09-07T00:39:20;12.80;99.90
15013;DHT22;7603;49.432;11.418;2023-09-07T00:41:46;12.70;99.90
15013;DHT22;7603;49.432;11.418;2023-09-07T00:44:12;12.70;99.90
15013;DHT22;7603;49.432;11.418;2023-09-07T00:46:37;12.70;99.90
15013;DHT22;7603;49.432;11.418;2023-09-07T00:49:03;12.70;99.90
15013;DHT22;7603;49.432;11.418;2023-09-07T00:51:30;12.70;99.90
15013;DHT22;7603;49.432;11.418;2023-09-07T00:53:56;12.60;99.90
15013;DHT22;7603;49.432;11.418;2023-09-07T00:56:25;12.60;99.90
15013;DHT22;7603;49.432;11.418;2023-09-07T00:58:52;12.60;99.90
15013;DHT22;7603;49.432;11.418;2023-09-07T01:01:20;12.60;99.90
15013;DHT22;7603;49.432;11.418;2023-09-07T01:03:45;12.60;99.90
15013;DHT22;7603;49.432;11.418;2023-09-07T01:06:26;12.60;99.90
15013;DHT22;7603;49.432;11.418;2023-09-07T01:08:55;12.50;99.90
15013;DHT22;7603;49.432;11.418;2023-09-07T01:11:24;12.60;99.90
15013;DHT22;7603;49.432;11.418;2023-09-07T01:13:50;12.50;99.90
15013;DHT22;7603;49.432;11.418;2023-09-07T01:16:20;12.50;99.90
15013;DHT22;7603;49.432;11.418;2023-09-07T01:18:46;12.50;99.90
15013;DHT22;7603;49.432;11.418;2023-09-07T01:21:13;12.40;99.90
15013;DHT22;7603;49.432;11.418;2023-09-07T01:23:41;12.40;99.90
15013;DHT22;7603;49.432;11.418;2023-09-07T01:26:08;12.40;99.90
15013;DHT22;7603;49.432;11.418;2023-09-07T01:28:35;12.30;99.90
15013;DHT22;7603;49.432;11.418;2023-09-07T01:31:00;12.30;99.90
15013;DHT22;7603;49.432;11.418;2023-09-07T01:33:27;12.30;99.90
15013;DHT22;7603;49.432;11.418;2023-09-07T01:35:52;12.20;99.90
15013;DHT22;7603;49.432;11.418;2023-09-07T01:38:18;12.20;99.90
15013;DHT22;7603;49.432;11.418;2023-09-07T01:40:44;12.20;99.90
15013;DHT22;7603;49.432;11.418;2023-09-07T01:43:10;12.10;99.90
15013;DHT22;7603;49.432;11.418;2023-09-07T01:45:35;12.10;99.90
15013;DHT22;7603;49.432;11.418;2023-09-07T01:48:02;12.10;99.90
15013;DHT22;7603;49.432;11.418;2023-09-07T01:50:29;12.00;99.90
15013;DHT22;7603;49.432;11.418;2023-09-07T01:52:54;12.00;99.90
15013;DHT22;7603;49.432;11.418;2023-09-07T01:55:20;12.00;99.90
15013;DHT22;7603;49.432;11.418;2023-09-07T01:57:45;11.90;99.90
15013;DHT22;7603;49.432;11.418;2023-09-07T02:00:12;11.90;99.90
15013;DHT22;7603;49.432;11.418;2023-09-07T02:02:38;11.80;99.90
15013;DHT22;7603;49.432;11.418;2023-09-07T02:05:04;11.90;99.90
15013;DHT22;7603;49.432;11.418;2023-09-07T02:07:30;11.90;99.90
15013;DHT22;7603;49.432;11.418;2023-09-07T02:09:55;11.90;99.90
15013;DHT22;7603;49.432;11.418;2023-09-07T02:12:21;11.80;99.90
15013;DHT22;7603;49.432;11.418;2023-09-07T02:14:47;11.80;99.90
15013;DHT22;7603;49.432;11.418;2023-09-07T02:17:12;11.70;99.90
15013;DHT22;7603;49.432;11.418;2023-09-07T02:19:43;11.60;99.90
15013;DHT22;7603;49.432;11.418;2023-09-07T02:22:09;11.60;99.90
15013;DHT22;7603;49.432;11.418;2023-09-07T02:24:34;11.50;99.90
15013;DHT22;7603;49.432;11.418;2023-09-07T02:27:00;11.40;99.90
15013;DHT22;7603;49.432;11.418;2023-09-07T02:29:26;11.40;99.90
15013;DHT22;7603;49.432;11.418;2023-09-07T02:31:52;11.30;99.90
15013;DHT22;7603;49.432;11.418;2023-09-07T02:34:18;11.20;99.90
15013;DHT22;7603;49.432;11.418;2023-09-07T02:36:43;11.20;99.90
15013;DHT22;7603;49.432;11.418;2023-09-07T02:39:09;11.10;99.90
15013;DHT22;7603;49.432;11.418;2023-09-07T02:41:36;11.10;99.90
15013;DHT22;7603;49.432;11.418;2023-09-07T02:44:02;11.10;99.90
15013;DHT22;7603;49.432;11.418;2023-09-07T02:46:28;11.00;99.90
15013;DHT22;7603;49.432;11.418;2023-09-07T02:48:54;10.90;99.90
15013;DHT22;7603;49.432;11.418;2023-09-07T02:51:23;10.90;99.90
15013;DHT22;7603;49.432;11.418;2023-09-07T02:53:49;10.90;99.90
15013;DHT22;7603;49.432;11.418;2023-09-07T02:56:15;10.90;99.90
15013;DHT22;7603;49.432;11.418;2023-09-07T02:58:40;10.80;99.90
15013;DHT22;7603;49.432;11.418;2023-09-07T03:01:06;10.80;99.90
15013;DHT22;7603;49.432;11.418;2023-09-07T03:03:35;10.80;99.90
15013;DHT22;7603;49.432;11.418;2023-09-07T03:06:12;10.80;99.90
15013;DHT22;7603;49.432;11.418;2023-09-07T03:08:41;10.80;99.90
15013;DHT22;7603;49.432;11.418;2023-09-07T03:11:08;10.70;99.90
15013;DHT22;7603;49.432;11.418;2023-09-07T03:13:34;10.70;99.90
15013;DHT22;7603;49.432;11.418;2023-09-07T03:16:00;10.70;99.90
15013;DHT22;7603;49.432;11.418;2023-09-07T03:18:26;10.60;99.90
15013;DHT22;7603;49.432;11.418;2023-09-07T03:20:55;10.60;99.90
15013;DHT22;7603;49.432;11.418;2023-09-07T03:23:21;10.60;99.90
15013;DHT22;7603;49.432;11.418;2023-09-07T03:25:48;10.50;99.90
15013;DHT22;7603;49.432;11.418;2023-09-07T03:28:13;10.50;99.90
15013;DHT22;7603;49.432;11.418;2023-09-07T03:30:39;10.50;99.90
15013;DHT22;7603;49.432;11.418;2023-09-07T03:33:05;10.40;99.90
15013;DHT22;7603;49.432;11.418;2023-09-07T03:35:32;10.40;99.90
15013;DHT22;7603;49.432;11.418;2023-09-07T03:37:57;10.40;99.90
15013;DHT22;7603;49.432;11.418;2023-09-07T03:40:23;10.40;99.90
15013;DHT22;7603;49.432;11.418;2023-09-07T03:42:49;10.30;99.90
15013;DHT22;7603;49.432;11.418;2023-09-07T03:45:15;10.30;99.90
15013;DHT22;7603;49.432;11.418;2023-09-07T03:47:41;10.30;99.90
15013;DHT22;7603;49.432;11.418;2023-09-07T03:50:07;10.20;99.90
15013;DHT22;7603;49.432;11.418;2023-09-07T03:52:33;10.20;99.90
15013;DHT22;7603;49.432;11.418;2023-09-07T03:54:59;10.20;99.90
15013;DHT22;7603;49.432;11.418;2023-09-07T03:57:26;10.30;99.90
15013;DHT22;7603;49.432;11.418;2023-09-07T03:59:52;10.30;99.90
15013;DHT22;7603;49.432;11.418;2023-09-07T04:02:17;10.20;99.90
15013;DHT22;7603;49.432;11.418;2023-09-07T04:04:51;10.20;99.90
15013;DHT22;7603;49.432;11.418;2023-09-07T04:07:17;10.10;99.90
15013;DHT22;7603;49.432;11.418;2023-09-07T04:09:44;10.10;99.90
15013;DHT22;7603;49.432;11.418;2023-09-07T04:12:10;10.10;99.90
15013;DHT22;7603;49.432;11.418;2023-09-07T04:14:36;10.10;99.90
15013;DHT22;7603;49.432;11.418;2023-09-07T04:17:02;10.10;99.90
15013;DHT22;7603;49.432;11.418;2023-09-07T04:19:28;10.10;99.90
15013;DHT22;7603;49.432;11.418;2023-09-07T04:21:53;10.10;99.90
15013;DHT22;7603;49.432;11.418;2023-09-07T04:24:19;10.10;99.90
15013;DHT22;7603;49.432;11.418;2023-09-07T04:26:45;10.10;99.90
15013;DHT22;7603;49.432;11.418;2023-09-07T04:29:10;10.10;99.90
15013;DHT22;7603;49.432;11.418;2023-09-07T04:31:38;10.10;99.90
15013;DHT22;7603;49.432;11.418;2023-09-07T04:34:04;10.00;99.90
15013;DHT22;7603;49.432;11.418;2023-09-07T04:36:29;10.00;99.90
15013;DHT22;7603;49.432;11.418;2023-09-07T04:38:55;10.00;99.90
15013;DHT22;7603;49.432;11.418;2023-09-07T04:41:21;10.00;99.90
15013;DHT22;7603;49.432;11.418;2023-09-07T04:43:46;10.00;99.90
15013;DHT22;7603;49.432;11.418;2023-09-07T04:46:13;10.00;99.90
15013;DHT22;7603;49.432;11.418;2023-09-07T04:48:39;10.00;99.90
15013;DHT22;7603;49.432;11.418;2023-09-07T04:51:09;10.00;99.90
15013;DHT22;7603;49.432;11.418;2023-09-07T04:53:37;10.00;99.90
15013;DHT22;7603;49.432;11.418;2023-09-07T04:56:03;10.00;99.90
15013;DHT22;7603;49.432;11.418;2023-09-07T04:58:29;10.10;99.90
15013;DHT22;7603;49.432;11.418;2023-09-07T05:01:02;10.00;99.90
15013;DHT22;7603;49.432;11.418;2023-09-07T05:03:27;10.10;99.90
15013;DHT22;7603;49.432;11.418;2023-09-07T05:05:53;10.10;99.90
15013;DHT22;7603;49.432;11.418;2023-09-07T05:08:19;10.20;99.90
15013;DHT22;7603;49.432;11.418;2023-09-07T05:10:45;10.20;99.90
15013;DHT22;7603;49.432;11.418;2023-09-07T05:13:11;10.30;99.90
15013;DHT22;7603;49.432;11.418;2023-09-07T05:15:36;10.30;99.90
15013;DHT22;7603;49.432;11.418;2023-09-07T05:18:02;10.40;99.90
15013;DHT22;7603;49.432;11.418;2023-09-07T05:20:30;10.40;99.90
15013;DHT22;7603;49.432;11.418;2023-09-07T05:22:56;10.50;99.90
15013;DHT22;7603;49.432;11.418;2023-09-07T05:25:22;10.50;99.90
15013;DHT22;7603;49.432;11.418;2023-09-07T05:27:48;10.60;99.90
15013;DHT22;7603;49.432;11.418;2023-09-07T05:30:14;10.60;99.90
15013;DHT22;7603;49.432;11.418;2023-09-07T05:32:40;10.70;99.90
15013;DHT22;7603;49.432;11.418;2023-09-07T05:35:07;10.80;99.90
15013;DHT22;7603;49.432;11.418;2023-09-07T05:37:33;10.90;99.90
15013;DHT22;7603;49.432;11.418;2023-09-07T05:39:58;11.00;99.90
15013;DHT22;7603;49.432;11.418;2023-09-07T05:42:24;11.00;99.90
15013;DHT22;7603;49.432;11.418;2023-09-07T05:44:51;11.10;99.90
15013;DHT22;7603;49.432;11.418;2023-09-07T05:47:17;11.10;99.90
15013;DHT22;7603;49.432;11.418;2023-09-07T05:49:43;11.20;99.90
15013;DHT22;7603;49.432;11.418;2023-09-07T05:52:08;11.30;99.90
15013;DHT22;7603;49.432;11.418;2023-09-07T05:54:34;11.40;99.90
15013;DHT22;7603;49.432;11.418;2023-09-07T05:57:00;11.60;99.90
15013;DHT22;7603;49.432;11.418;2023-09-07T05:59:25;11.60;99.90
15013;DHT22;7603;49.432;11.418;2023-09-07T06:01:51;11.80;99.90
15013;DHT22;7603;49.432;11.418;2023-09-07T06:04:16;11.90;99.90
15013;DHT22;7603;49.432;11.418;2023-09-07T06:06:42;12.00;99.90
15013;DHT22;7603;49.432;11.418;2023-09-07T06:09:08;12.20;99.90
15013;DHT22;7603;49.432;11.418;2023-09-07T06:11:33;12.30;99.90
15013;DHT22;7603;49.432;11.418;2023-09-07T06:14:00;12.40;99.90
15013;DHT22;7603;49.432;11.418;2023-09-07T06:16:25;12.60;99.90
15013;DHT22;7603;49.432;11.418;2023-09-07T06:18:51;12.80;99.90
15013;DHT22;7603;49.432;11.418;2023-09-07T06:21:17;12.90;99.90
15013;DHT22;7603;49.432;11.418;2023-09-07T06:23:43;13.10;99.90
15013;DHT22;7603;49.432;11.418;2023-09-07T06:26:09;13.30;99.90
15013;DHT22;7603;49.432;11.418;2023-09-07T06:28:34;13.50;99.90
15013;DHT22;7603;49.432;11.418;2023-09-07T06:31:00;13.70;99.90
15013;DHT22;7603;49.432;11.418;2023-09-07T06:33:25;13.90;99.90
15013;DHT22;7603;49.432;11.418;2023-09-07T06:35:51;14.10;99.90
15013;DHT22;7603;49.432;11.418;2023-09-07T06:38:17;14.30;99.90
15013;DHT22;7603;49.432;11.418;2023-09-07T06:40:50;14.50;99.90
15013;DHT22;7603;49.432;11.418;2023-09-07T06:43:16;14.80;99.90
15013;DHT22;7603;49.432;11.418;2023-09-07T06:45:42;15.30;99.90
15013;DHT22;7603;49.432;11.418;2023-09-07T06:48:07;15.80;99.90
15013;DHT22;7603;49.432;11.418;2023-09-07T06:50:33;16.10;99.90
15013;DHT22;7603;49.432;11.418;2023-09-07T06:52:59;16.50;99.90
15013;DHT22;7603;49.432;11.418;2023-09-07T06:55:25;16.90;99.90
15013;DHT22;7603;49.432;11.418;2023-09-07T06:57:50;17.20;99.90
15013;DHT22;7603;49.432;11.418;2023-09-07T07:00:16;17.50;99.90
15013;DHT22;7603;49.432;11.418;2023-09-07T07:02:42;17.80;99.90
15013;DHT22;7603;49.432;11.418;2023-09-07T07:05:07;18.10;99.90
15013;DHT22;7603;49.432;11.418;2023-09-07T07:07:34;18.30;99.90
15013;DHT22;7603;49.432;11.418;2023-09-07T07:10:00;18.60;99.90
15013;DHT22;7603;49.432;11.418;2023-09-07T07:12:25;18.90;99.90
15013;DHT22;7603;49.432;11.418;2023-09-07T07:14:51;19.20;99.90
15013;DHT22;7603;49.432;11.418;2023-09-07T07:17:17;19.40;99.90
15013;DHT22;7603;49.432;11.418;2023-09-07T07:19:43;19.60;99.90
15013;DHT22;7603;49.432;11.418;2023-09-07T07:22:08;19.90;99.90
15013;DHT22;7603;49.432;11.418;2023-09-07T07:24:34;20.10;99.90
15013;DHT22;7603;49.432;11.418;2023-09-07T07:27:00;20.20;99.90
15013;DHT22;7603;49.432;11.418;2023-09-07T07:29:25;20.40;99.90
15013;DHT22;7603;49.432;11.418;2023-09-07T07:31:51;20.60;99.90
15013;DHT22;7603;49.432;11.418;2023-09-07T07:34:16;20.70;99.90
15013;DHT22;7603;49.432;11.418;2023-09-07T07:36:42;20.90;99.90
15013;DHT22;7603;49.432;11.418;2023-09-07T07:39:08;21.00;99.90
15013;DHT22;7603;49.432;11.418;2023-09-07T07:41:33;21.10;99.50
15013;DHT22;7603;49.432;11.418;2023-09-07T07:43:59;21.20;98.70
15013;DHT22;7603;49.432;11.418;2023-09-07T07:46:24;21.30;98.40
15013;DHT22;7603;49.432;11.418;2023-09-07T07:48:50;21.30;97.60
15013;DHT22;7603;49.432;11.418;2023-09-07T07:51:16;21.40;97.10
15013;DHT22;7603;49.432;11.418;2023-09-07T07:53:41;21.50;97.40
15013;DHT22;7603;49.432;11.418;2023-09-07T07:56:17;21.70;96.60
15013;DHT22;7603;49.432;11.418;2023-09-07T07:58:43;21.80;95.60
15013;DHT22;7603;49.432;11.418;2023-09-07T08:01:19;21.90;94.80
15013;DHT22;7603;49.432;11.418;2023-09-07T08:03:45;22.10;93.60
15013;DHT22;7603;49.432;11.418;2023-09-07T08:06:11;22.20;93.20
15013;DHT22;7603;49.432;11.418;2023-09-07T08:08:38;22.30;93.00
15013;DHT22;7603;49.432;11.418;2023-09-07T08:11:04;22.40;92.70
15013;DHT22;7603;49.432;11.418;2023-09-07T08:13:33;22.60;91.50
15013;DHT22;7603;49.432;11.418;2023-09-07T08:16:02;22.70;90.80
15013;DHT22;7603;49.432;11.418;2023-09-07T08:18:28;22.80;90.20
15013;DHT22;7603;49.432;11.418;2023-09-07T08:20:54;23.00;88.60
15013;DHT22;7603;49.432;11.418;2023-09-07T08:23:21;23.20;87.70
15013;DHT22;7603;49.432;11.418;2023-09-07T08:25:48;23.30;86.10
15013;DHT22;7603;49.432;11.418;2023-09-07T08:28:14;23.50;84.40
15013;DHT22;7603;49.432;11.418;2023-09-07T08:30:42;23.80;84.30
15013;DHT22;7603;49.432;11.418;2023-09-07T08:33:07;24.10;82.70
15013;DHT22;7603;49.432;11.418;2023-09-07T08:35:33;24.40;80.10
15013;DHT22;7603;49.432;11.418;2023-09-07T08:38:01;24.90;77.60
15013;DHT22;7603;49.432;11.418;2023-09-07T08:40:30;25.30;73.40
15013;DHT22;7603;49.432;11.418;2023-09-07T08:42:59;25.90;72.40
15013;DHT22;7603;49.432;11.418;2023-09-07T08:45:26;26.50;70.70
15013;DHT22;7603;49.432;11.418;2023-09-07T08:47:55;27.20;67.40
15013;DHT22;7603;49.432;11.418;2023-09-07T08:50:22;27.90;64.40
15013;DHT22;7603;49.432;11.418;2023-09-07T08:52:51;28.50;61.20
15013;DHT22;7603;49.432;11.418;2023-09-07T08:55:17;29.10;59.30
15013;DHT22;7603;49.432;11.418;2023-09-07T08:57:43;29.70;57.00
15013;DHT22;7603;49.432;11.418;2023-09-07T09:00:09;30.30;55.40
15013;DHT22;7603;49.432;11.418;2023-09-07T09:02:41;30.90;53.90
15013;DHT22;7603;49.432;11.418;2023-09-07T09:05:09;31.50;52.40
15013;DHT22;7603;49.432;11.418;2023-09-07T09:07:37;32.10;50.60
15013;DHT22;7603;49.432;11.418;2023-09-07T09:10:06;32.70;48.80
15013;DHT22;7603;49.432;11.418;2023-09-07T09:12:33;33.30;47.30
15013;DHT22;7603;49.432;11.418;2023-09-07T09:15:00;34.00;45.90
15013;DHT22;7603;49.432;11.418;2023-09-07T09:17:27;34.60;44.40
15013;DHT22;7603;49.432;11.418;2023-09-07T09:19:52;35.20;43.00
15013;DHT22;7603;49.432;11.418;2023-09-07T09:22:18;35.70;41.60
15013;DHT22;7603;49.432;11.418;2023-09-07T09:24:48;36.20;40.30
15013;DHT22;7603;49.432;11.418;2023-09-07T09:27:13;36.60;38.90
15013;DHT22;7603;49.432;11.418;2023-09-07T09:29:39;37.00;38.70
15013;DHT22;7603;49.432;11.418;2023-09-07T09:32:06;37.50;38.00
15013;DHT22;7603;49.432;11.418;2023-09-07T09:34:33;38.10;36.80
15013;DHT22;7603;49.432;11.418;2023-09-07T09:37:00;38.60;35.90
15013;DHT22;7603;49.432;11.418;2023-09-07T09:39:26;38.90;35.00
15013;DHT22;7603;49.432;11.418;2023-09-07T09:41:52;39.20;35.00
15013;DHT22;7603;49.432;11.418;2023-09-07T09:44:21;39.50;35.00
15013;DHT22;7603;49.432;11.418;2023-09-07T09:46:48;39.90;34.20
15013;DHT22;7603;49.432;11.418;2023-09-07T09:49:15;40.30;32.60
15013;DHT22;7603;49.432;11.418;2023-09-07T09:51:42;40.50;31.90
15013;DHT22;7603;49.432;11.418;2023-09-07T09:54:09;40.70;31.40
15013;DHT22;7603;49.432;11.418;2023-09-07T09:56:34;41.10;30.90
15013;DHT22;7603;49.432;11.418;2023-09-07T09:59:00;41.40;30.30
15013;DHT22;7603;49.432;11.418;2023-09-07T10:01:26;41.60;29.90
15013;DHT22;7603;49.432;11.418;2023-09-07T10:03:53;41.90;30.00
15013;DHT22;7603;49.432;11.418;2023-09-07T10:06:24;42.30;30.00
15013;DHT22;7603;49.432;11.418;2023-09-07T10:09:07;42.50;28.70
15013;DHT22;7603;49.432;11.418;2023-09-07T10:11:35;42.70;28.50
15013;DHT22;7603;49.432;11.418;2023-09-07T10:14:04;43.00;27.70
15013;DHT22;7603;49.432;11.418;2023-09-07T10:16:47;43.20;27.40
15013;DHT22;7603;49.432;11.418;2023-09-07T10:19:22;43.50;26.90
15013;DHT22;7603;49.432;11.418;2023-09-07T10:21:49;43.60;27.00
15013;DHT22;7603;49.432;11.418;2023-09-07T10:27:03;43.50;25.50
15013;DHT22;7603;49.432;11.418;2023-09-07T10:32:07;43.50;24.90
15013;DHT22;7603;49.432;11.418;2023-09-07T10:34:35;43.60;24.60
15013;DHT22;7603;49.432;11.418;2023-09-07T10:37:03;43.80;24.80
15013;DHT22;7603;49.432;11.418;2023-09-07T10:39:32;44.00;24.70
15013;DHT22;7603;49.432;11.418;2023-09-07T10:41:58;44.30;24.80
15013;DHT22;7603;49.432;11.418;2023-09-07T10:44:27;44.50;24.90
15013;DHT22;7603;49.432;11.418;2023-09-07T10:46:54;44.80;24.30
15013;DHT22;7603;49.432;11.418;2023-09-07T10:49:19;44.90;24.00
15013;DHT22;7603;49.432;11.418;2023-09-07T10:51:46;45.30;24.20
15013;DHT22;7603;49.432;11.418;2023-09-07T10:54:22;45.70;23.20
15013;DHT22;7603;49.432;11.418;2023-09-07T10:56:49;46.00;22.80
15013;DHT22;7603;49.432;11.418;2023-09-07T10:59:15;46.00;22.80
15013;DHT22;7603;49.432;11.418;2023-09-07T11:01:44;46.10;22.80
15013;DHT22;7603;49.432;11.418;2023-09-07T11:04:10;46.60;22.80
15013;DHT22;7603;49.432;11.418;2023-09-07T11:06:40;46.70;23.50
15013;DHT22;7603;49.432;11.418;2023-09-07T11:09:06;47.10;23.10
15013;DHT22;7603;49.432;11.418;2023-09-07T11:11:35;47.30;22.70
15013;DHT22;7603;49.432;11.418;2023-09-07T11:14:03;47.90;22.00
15013;DHT22;7603;49.432;11.418;2023-09-07T11:16:29;48.30;22.00
15013;DHT22;7603;49.432;11.418;2023-09-07T11:18:55;48.80;21.70
15013;DHT22;7603;49.432;11.418;2023-09-07T11:21:21;49.20;21.70
15013;DHT22;7603;49.432;11.418;2023-09-07T11:23:46;49.20;21.80
15013;DHT22;7603;49.432;11.418;2023-09-07T11:26:12;49.30;21.90
15013;DHT22;7603;49.432;11.418;2023-09-07T11:28:38;49.50;22.00
15013;DHT22;7603;49.432;11.418;2023-09-07T11:31:04;49.50;21.80
15013;DHT22;7603;49.432;11.418;2023-09-07T11:33:33;49.50;21.80
15013;DHT22;7603;49.432;11.418;2023-09-07T11:35:59;49.50;21.40
15013;DHT22;7603;49.432;11.418;2023-09-07T11:38:29;49.60;21.40
15013;DHT22;7603;49.432;11.418;2023-09-07T11:40:55;49.70;21.20
15013;DHT22;7603;49.432;11.418;2023-09-07T11:43:20;49.70;21.10
15013;DHT22;7603;49.432;11.418;2023-09-07T11:45:46;49.70;21.00
15013;DHT22;7603;49.432;11.418;2023-09-07T11:48:12;50.00;21.20
15013;DHT22;7603;49.432;11.418;2023-09-07T11:50:38;50.10;21.00
15013;DHT22;7603;49.432;11.418;2023-09-07T11:53:05;50.20;21.30
15013;DHT22;7603;49.432;11.418;2023-09-07T11:55:32;50.50;21.20
15013;DHT22;7603;49.432;11.418;2023-09-07T11:57:58;50.80;21.20
15013;DHT22;7603;49.432;11.418;2023-09-07T12:00:24;51.00;21.00
15013;DHT22;7603;49.432;11.418;2023-09-07T12:02:50;51.00;20.80
15013;DHT22;7603;49.432;11.418;2023-09-07T12:05:15;51.10;21.00
15013;DHT22;7603;49.432;11.418;2023-09-07T12:07:42;51.20;21.20
15013;DHT22;7603;49.432;11.418;2023-09-07T12:10:11;51.20;20.90
15013;DHT22;7603;49.432;11.418;2023-09-07T12:12:38;50.80;20.90
15013;DHT22;7603;49.432;11.418;2023-09-07T12:15:04;51.00;21.10
15013;DHT22;7603;49.432;11.418;2023-09-07T12:17:33;51.00;21.30
15013;DHT22;7603;49.432;11.418;2023-09-07T12:19:58;50.90;20.80
15013;DHT22;7603;49.432;11.418;2023-09-07T12:22:25;50.80;20.90
15013;DHT22;7603;49.432;11.418;2023-09-07T12:24:50;50.80;21.10
15013;DHT22;7603;49.432;11.418;2023-09-07T12:27:16;51.20;21.20
15013;DHT22;7603;49.432;11.418;2023-09-07T12:29:42;51.40;20.80
15013;DHT22;7603;49.432;11.418;2023-09-07T12:32:08;51.60;20.80
15013;DHT22;7603;49.432;11.418;2023-09-07T12:34:34;51.80;21.00
15013;DHT22;7603;49.432;11.418;2023-09-07T12:37:01;52.10;20.80
15013;DHT22;7603;49.432;11.418;2023-09-07T12:39:29;52.40;20.40
15013;DHT22;7603;49.432;11.418;2023-09-07T12:41:55;52.60;20.40
15013;DHT22;7603;49.432;11.418;2023-09-07T12:44:20;53.00;20.50
15013;DHT22;7603;49.432;11.418;2023-09-07T12:46:46;53.40;20.50
15013;DHT22;7603;49.432;11.418;2023-09-07T12:49:12;53.40;19.80
15013;DHT22;7603;49.432;11.418;2023-09-07T12:51:40;53.50;19.90
15013;DHT22;7603;49.432;11.418;2023-09-07T12:54:06;53.70;19.60
15013;DHT22;7603;49.432;11.418;2023-09-07T12:56:32;54.10;19.90
15013;DHT22;7603;49.432;11.418;2023-09-07T12:58:58;54.20;19.10
15013;DHT22;7603;49.432;11.418;2023-09-07T13:01:27;54.00;18.80
15013;DHT22;7603;49.432;11.418;2023-09-07T13:03:53;54.10;19.10
15013;DHT22;7603;49.432;11.418;2023-09-07T13:06:19;54.10;19.50
15013;DHT22;7603;49.432;11.418;2023-09-07T13:08:45;54.40;19.10
15013;DHT22;7603;49.432;11.418;2023-09-07T13:11:11;54.70;19.10
15013;DHT22;7603;49.432;11.418;2023-09-07T13:13:37;55.00;19.20
15013;DHT22;7603;49.432;11.418;2023-09-07T13:16:03;55.10;19.10
15013;DHT22;7603;49.432;11.418;2023-09-07T13:18:29;55.20;18.60
15013;DHT22;7603;49.432;11.418;2023-09-07T13:20:55;55.30;18.90
15013;DHT22;7603;49.432;11.418;2023-09-07T13:23:28;55.50;18.50
15013;DHT22;7603;49.432;11.418;2023-09-07T13:25:57;55.40;18.40
15013;DHT22;7603;49.432;11.418;2023-09-07T13:28:23;55.30;18.30
15013;DHT22;7603;49.432;11.418;2023-09-07T13:30:52;55.30;17.70
15013;DHT22;7603;49.432;11.418;2023-09-07T13:33:18;55.10;18.00
15013;DHT22;7603;49.432;11.418;2023-09-07T13:35:44;54.90;18.30
15013;DHT22;7603;49.432;11.418;2023-09-07T13:38:10;54.80;18.70
15013;DHT22;7603;49.432;11.418;2023-09-07T13:40:36;54.80;18.50
15013;DHT22;7603;49.432;11.418;2023-09-07T13:43:02;54.80;18.80
15013;DHT22;7603;49.432;11.418;2023-09-07T13:45:27;55.00;19.00
15013;DHT22;7603;49.432;11.418;2023-09-07T13:47:55;55.40;18.10
15013;DHT22;7603;49.432;11.418;2023-09-07T13:50:21;55.50;17.30
15013;DHT22;7603;49.432;11.418;2023-09-07T13:52:47;55.50;17.50
15013;DHT22;7603;49.432;11.418;2023-09-07T13:55:12;55.60;17.80
15013;DHT22;7603;49.432;11.418;2023-09-07T13:57:38;55.80;17.90
15013;DHT22;7603;49.432;11.418;2023-09-07T14:00:04;56.00;17.90
15013;DHT22;7603;49.432;11.418;2023-09-07T14:02:32;56.20;17.30
15013;DHT22;7603;49.432;11.418;2023-09-07T14:04:58;56.20;17.50
15013;DHT22;7603;49.432;11.418;2023-09-07T14:07:24;56.30;17.50
15013;DHT22;7603;49.432;11.418;2023-09-07T14:09:54;56.10;17.80
15013;DHT22;7603;49.432;11.418;2023-09-07T14:12:20;56.00;17.80
15013;DHT22;7603;49.432;11.418;2023-09-07T14:14:45;55.80;17.70
15013;DHT22;7603;49.432;11.418;2023-09-07T14:17:11;55.60;18.20
15013;DHT22;7603;49.432;11.418;2023-09-07T14:19:37;55.50;18.50
15013;DHT22;7603;49.432;11.418;2023-09-07T14:22:02;55.60;18.00
15013;DHT22;7603;49.432;11.418;2023-09-07T14:24:28;55.60;18.00
15013;DHT22;7603;49.432;11.418;2023-09-07T14:26:54;55.80;18.20
15013;DHT22;7603;49.432;11.418;2023-09-07T14:29:19;55.70;17.90
15013;DHT22;7603;49.432;11.418;2023-09-07T14:31:45;55.50;18.10
15013;DHT22;7603;49.432;11.418;2023-09-07T14:34:11;55.40;18.30
15013;DHT22;7603;49.432;11.418;2023-09-07T14:36:38;55.00;17.60
15013;DHT22;7603;49.432;11.418;2023-09-07T14:39:06;54.50;17.60
15013;DHT22;7603;49.432;11.418;2023-09-07T14:41:32;54.20;17.80
15013;DHT22;7603;49.432;11.418;2023-09-07T14:43:59;54.30;18.00
15013;DHT22;7603;49.432;11.418;2023-09-07T14:46:25;54.50;18.00
15013;DHT22;7603;49.432;11.418;2023-09-07T14:48:51;54.60;18.20
15013;DHT22;7603;49.432;11.418;2023-09-07T14:51:17;55.10;18.20
15013;DHT22;7603;49.432;11.418;2023-09-07T14:53:43;55.40;17.90
15013;DHT22;7603;49.432;11.418;2023-09-07T14:56:09;55.50;17.80
15013;DHT22;7603;49.432;11.418;2023-09-07T14:58:35;55.80;17.80
15013;DHT22;7603;49.432;11.418;2023-09-07T15:01:01;55.90;18.00
15013;DHT22;7603;49.432;11.418;2023-09-07T15:03:27;55.90;17.80
15013;DHT22;7603;49.432;11.418;2023-09-07T15:05:53;55.90;17.70
15013;DHT22;7603;49.432;11.418;2023-09-07T15:08:19;55.90;17.80
15013;DHT22;7603;49.432;11.418;2023-09-07T15:10:45;55.90;17.50
15013;DHT22;7603;49.432;11.418;2023-09-07T15:13:11;55.60;17.70
15013;DHT22;7603;49.432;11.418;2023-09-07T15:15:37;55.50;18.00
15013;DHT22;7603;49.432;11.418;2023-09-07T15:18:08;55.40;18.30
15013;DHT22;7603;49.432;11.418;2023-09-07T15:20:37;55.60;18.10
15013;DHT22;7603;49.432;11.418;2023-09-07T15:23:03;55.80;18.20
15013;DHT22;7603;49.432;11.418;2023-09-07T15:25:28;55.70;18.00
15013;DHT22;7603;49.432;11.418;2023-09-07T15:27:54;55.60;17.70
15013;DHT22;7603;49.432;11.418;2023-09-07T15:30:21;55.40;17.80